Time;durP1;ratioP1;P1;durP2;ratioP2;P2;SDS_P1;SDS_P2;PMS_P1;PMS_P2;Temp;Humidity;BMP_temperature;BMP_pressure;BME280_temperature;BME280_humidity;BME280_pressure;Samples;Min_cycle;Max_cycle;Signal;HPM_P1;HPM_P2
2021/12/05 17:13:32;;;;;;;16.90;6.03;;;;;;;;;;5053440;28;21161;-64
2021/12/05 17:16:13;;;;;;;21.98;7.60;;;;;;;;;;5059272;28;20104;-64
2021/12/05 17:18:41;;;;;;;21.00;9.43;;;;;;;;;;5043657;28;20400;-64
2021/12/05 17:21:08;;;;;;;20.25;8.07;;;;;;;;;;5048937;28;20041;-64
2021/12/05 17:23:46;;;;;;;31.35;12.30;;;;;;;;;;5056907;28;20016;-64
2021/12/05 17:26:19;;;;;;;23.23;10.27;;;;;;;;;;5060906;28;20035;-64
2021/12/05 17:28:56;;;;;;;26.85;11.07;;;;;;;;;;5054566;28;20025;-64
2021/12/05 17:31:24;;;;;;;29.92;11.00;;;;;;;;;;5060478;28;20041;-64
2021/12/05 17:33:54;;;;;;;32.75;9.60;;;;;;;;;;5054474;28;20494;-64
2021/12/05 17:36:21;;;;;;;24.08;9.73;;;;;;;;;;5053404;28;20054;-64
2021/12/05 17:38:48;;;;;;;22.67;7.97;;;;;;;;;;5059742;28;20031;-64
2021/12/05 17:41:14;;;;;;;28.27;8.63;;;;;;;;;;5047699;28;20148;-64
2021/12/05 17:43:40;;;;;;;116.50;42.35;;;;;;;;;;5047724;28;20029;-65
2021/12/05 17:46:06;;;;;;;49.30;19.67;;;;;;;;;;5047389;28;20057;-65
2021/12/05 17:48:33;;;;;;;63.88;31.90;;;;;;;;;;5054795;28;20025;-65
2021/12/05 17:51:03;;;;;;;46.85;16.10;;;;;;;;;;5056329;28;20542;-66
2021/12/05 17:53:31;;;;;;;32.88;12.85;;;;;;;;;;5050918;28;20032;-65
2021/12/05 17:56:07;;;;;;;31.42;15.68;;;;;;;;;;5050966;28;20457;-66
2021/12/05 18:03:55;;;;;;;33.35;15.68;;;;;;;;;;5054464;28;20048;-66
2021/12/05 18:06:21;;;;;;;30.25;15.80;;;;;;;;;;5045904;28;20032;-65
2021/12/05 18:08:47;;;;;;;33.65;14.00;;;;;;;;;;5044431;28;20348;-65
2021/12/05 18:11:20;;;;;;;28.73;13.52;;;;;;;;;;5044423;28;20048;-65
2021/12/05 18:13:50;;;;;;;33.70;12.85;;;;;;;;;;5045975;28;20027;-65
2021/12/05 18:16:23;;;;;;;29.08;11.93;;;;;;;;;;5044872;28;20025;-65
2021/12/05 18:18:49;;;;;;;32.63;14.48;;;;;;;;;;5046052;28;20380;-65
2021/12/05 18:21:15;;;;;;;37.85;17.70;;;;;;;;;;5050672;28;20029;-65
2021/12/05 18:23:41;;;;;;;71.40;31.45;;;;;;;;;;5048087;28;20466;-65
2021/12/05 18:26:07;;;;;;;63.53;27.58;;;;;;;;;;5044016;28;20395;-65
2021/12/05 18:28:34;;;;;;;43.35;17.98;;;;;;;;;;5040463;28;20052;-65
2021/12/05 18:31:00;;;;;;;52.70;22.45;;;;;;;;;;5040304;28;20037;-65
2021/12/05 18:33:29;;;;;;;62.92;23.70;;;;;;;;;;5041827;28;20028;-65
2021/12/05 18:35:55;;;;;;;39.90;17.15;;;;;;;;;;5033585;28;20071;-66
2021/12/05 18:38:23;;;;;;;28.35;9.90;;;;;;;;;;5040734;28;20477;-66
2021/12/05 18:40:51;;;;;;;35.00;12.48;;;;;;;;;;5044188;28;20048;-65
2021/12/05 18:43:20;;;;;;;40.97;13.95;;;;;;;;;;5036998;28;20029;-66
2021/12/05 18:45:46;;;;;;;79.30;31.38;;;;;;;;;;5032219;28;20048;-66
2021/12/05 18:48:12;;;;;;;122.63;59.25;;;;;;;;;;5031708;28;20032;-64
2021/12/05 18:50:38;;;;;;;101.45;51.92;;;;;;;;;;5031922;28;20343;-65
2021/12/05 18:53:05;;;;;;;47.67;20.80;;;;;;;;;;5032054;28;20025;-65
2021/12/05 18:55:34;;;;;;;46.50;20.23;;;;;;;;;;5046959;28;20159;-65
2021/12/05 18:58:07;;;;;;;87.07;32.50;;;;;;;;;;5029545;28;20021;-66
2021/12/05 19:00:41;;;;;;;56.78;29.52;;;;;;;;;;5025131;28;20393;-63
2021/12/05 19:06:05;;;;;;;28.60;12.38;;;;;;;;;;5031465;28;19962;-66
2021/12/05 19:08:39;;;;;;;26.52;10.88;;;;;;;;;;5016080;28;20159;-66
2021/12/05 19:13:50;;;;;;;18.75;7.30;;;;;;;;;;5024407;28;20405;-65
2021/12/05 19:16:16;;;;;;;22.00;7.25;;;;;;;;;;5033098;28;20121;-65
2021/12/05 19:18:42;;;;;;;21.83;6.80;;;;;;;;;;5030260;28;20037;-65
2021/12/05 19:21:08;;;;;;;22.00;5.88;;;;;;;;;;5031185;28;20075;-66
2021/12/05 19:23:36;;;;;;;15.65;6.15;;;;;;;;;;5031228;28;20083;-65
2021/12/05 19:26:03;;;;;;;17.85;7.20;;;;;;;;;;5029315;28;20025;-65
2021/12/05 19:28:29;;;;;;;20.83;6.38;;;;;;;;;;5050960;28;20098;-65
2021/12/05 19:30:55;;;;;;;23.75;6.38;;;;;;;;;;5021152;28;20373;-64
2021/12/05 19:33:24;;;;;;;15.35;6.03;;;;;;;;;;5021214;28;20060;-64
2021/12/05 19:35:50;;;;;;;19.92;6.30;;;;;;;;;;5028234;28;20110;-64
2021/12/05 19:38:23;;;;;;;25.33;6.13;;;;;;;;;;5030068;28;20022;-68
2021/12/05 19:40:49;;;;;;;13.63;5.78;;;;;;;;;;5025089;28;20030;-65
2021/12/05 19:43:15;;;;;;;24.45;6.13;;;;;;;;;;5020723;28;20407;-65
2021/12/05 19:45:41;;;;;;;31.90;14.10;;;;;;;;;;5023324;28;20388;-65
2021/12/05 19:48:07;;;;;;;32.42;10.50;;;;;;;;;;5021832;28;20087;-65
2021/12/05 19:50:39;;;;;;;20.02;5.95;;;;;;;;;;5021539;28;20370;-64
2021/12/05 19:53:05;;;;;;;19.20;6.10;;;;;;;;;;5022308;28;20443;-65
2021/12/05 19:55:31;;;;;;;24.13;5.28;;;;;;;;;;5025162;28;20018;-65
2021/12/05 19:57:57;;;;;;;14.25;5.20;;;;;;;;;;5018900;28;20018;-65
2021/12/05 20:00:24;;;;;;;12.95;4.22;;;;;;;;;;5027575;28;20465;-65
2021/12/05 20:02:50;;;;;;;26.65;7.25;;;;;;;;;;5026697;28;20018;-65
2021/12/05 20:05:17;;;;;;;21.73;9.88;;;;;;;;;;5017308;28;20394;-64
2021/12/05 20:07:43;;;;;;;40.80;15.00;;;;;;;;;;5021731;28;20465;-65
2021/12/05 20:10:10;;;;;;;23.88;10.40;;;;;;;;;;5019776;28;20026;-65
2021/12/05 20:12:36;;;;;;;33.13;9.27;;;;;;;;;;5022311;28;20076;-66
2021/12/05 20:15:03;;;;;;;30.33;9.00;;;;;;;;;;5024299;28;20032;-66
2021/12/05 20:17:29;;;;;;;26.40;8.45;;;;;;;;;;5021305;28;20022;-64
2021/12/05 20:19:56;;;;;;;17.40;7.88;;;;;;;;;;5020909;28;20026;-65
2021/12/05 20:22:23;;;;;;;17.85;6.85;;;;;;;;;;5021015;28;20025;-64
2021/12/05 20:24:49;;;;;;;19.83;5.97;;;;;;;;;;5030636;28;20361;-64
2021/12/05 20:27:15;;;;;;;25.23;6.85;;;;;;;;;;5021224;28;20111;-65
2021/12/05 20:29:41;;;;;;;20.52;7.57;;;;;;;;;;5016776;28;20025;-64
2021/12/05 20:32:07;;;;;;;22.70;5.97;;;;;;;;;;5018481;28;20528;-65
2021/12/05 20:34:34;;;;;;;13.98;4.70;;;;;;;;;;5022477;28;20408;-64
2021/12/05 20:37:00;;;;;;;20.42;7.50;;;;;;;;;;5028817;28;20041;-65
2021/12/05 20:39:26;;;;;;;15.98;4.65;;;;;;;;;;5019321;28;20026;-65
2021/12/05 20:41:54;;;;;;;14.38;5.03;;;;;;;;;;5017066;28;20026;-65
2021/12/05 20:44:20;;;;;;;24.45;5.93;;;;;;;;;;5019588;28;20026;-64
2021/12/05 20:46:46;;;;;;;10.13;4.03;;;;;;;;;;5032884;28;20029;-64
2021/12/05 20:49:12;;;;;;;18.52;4.85;;;;;;;;;;5028753;28;20036;-65
2021/12/05 20:51:38;;;;;;;11.75;4.05;;;;;;;;;;5029955;28;20022;-65
2021/12/05 20:54:05;;;;;;;18.90;4.75;;;;;;;;;;5048383;28;20035;-65
2021/12/05 20:56:31;;;;;;;15.55;4.18;;;;;;;;;;5033170;28;20642;-64
2021/12/05 20:58:57;;;;;;;13.18;3.97;;;;;;;;;;5032696;28;20075;-65
2021/12/05 21:01:23;;;;;;;18.00;4.22;;;;;;;;;;5029681;28;20112;-64
2021/12/05 21:03:50;;;;;;;17.60;4.75;;;;;;;;;;5029627;28;20017;-65
2021/12/05 21:06:16;;;;;;;15.05;3.90;;;;;;;;;;5029036;28;20079;-64
2021/12/05 21:08:42;;;;;;;12.05;3.42;;;;;;;;;;5033348;28;20032;-64
2021/12/05 21:11:12;;;;;;;12.55;2.97;;;;;;;;;;5049441;28;20523;-64
2021/12/05 21:13:38;;;;;;;14.05;3.47;;;;;;;;;;5028243;28;20164;-64
2021/12/05 21:16:04;;;;;;;15.65;3.13;;;;;;;;;;5025424;28;20411;-64
2021/12/05 21:18:31;;;;;;;11.07;2.97;;;;;;;;;;5025780;28;20021;-64
2021/12/05 21:20:58;;;;;;;12.52;3.08;;;;;;;;;;5024940;28;20022;-64
2021/12/05 21:23:24;;;;;;;12.57;2.10;;;;;;;;;;5028971;28;20145;-64
2021/12/05 21:25:51;;;;;;;9.88;2.35;;;;;;;;;;5029595;28;20136;-64
2021/12/05 21:28:18;;;;;;;11.75;3.17;;;;;;;;;;5033896;28;20025;-65
2021/12/05 21:30:44;;;;;;;10.98;2.97;;;;;;;;;;5035276;28;20054;-66
2021/12/05 21:33:12;;;;;;;10.18;3.08;;;;;;;;;;5037440;28;20422;-64
2021/12/05 21:35:38;;;;;;;13.38;2.42;;;;;;;;;;5034731;28;20025;-65
2021/12/05 21:38:05;;;;;;;11.35;3.10;;;;;;;;;;5029965;28;20076;-64
2021/12/05 21:40:32;;;;;;;14.07;3.17;;;;;;;;;;5029997;28;20072;-65
2021/12/05 21:42:58;;;;;;;11.82;3.30;;;;;;;;;;5037709;28;20032;-63
2021/12/05 21:45:25;;;;;;;13.18;2.67;;;;;;;;;;5040381;28;20028;-64
2021/12/05 21:47:51;;;;;;;18.00;3.67;;;;;;;;;;5041178;28;20029;-65
2021/12/05 21:50:17;;;;;;;9.18;2.92;;;;;;;;;;5039159;28;20086;-64
2021/12/05 21:52:47;;;;;;;13.25;2.65;;;;;;;;;;5037588;28;20029;-64
2021/12/05 21:55:14;;;;;;;14.07;2.75;;;;;;;;;;5044232;28;20372;-65
2021/12/05 21:57:40;;;;;;;7.95;2.90;;;;;;;;;;5035702;28;20025;-65
2021/12/05 22:00:10;;;;;;;9.52;2.20;;;;;;;;;;5036331;28;20242;-65
2021/12/05 22:02:36;;;;;;;8.35;2.50;;;;;;;;;;5040916;28;20025;-64
2021/12/05 22:05:02;;;;;;;14.68;2.20;;;;;;;;;;5034269;28;20049;-63
2021/12/05 22:07:28;;;;;;;12.88;2.67;;;;;;;;;;5038134;28;20021;-64
2021/12/05 22:09:54;;;;;;;13.48;2.63;;;;;;;;;;5041843;28;20029;-64
2021/12/05 22:12:20;;;;;;;9.45;4.03;;;;;;;;;;5041156;28;20547;-64
2021/12/05 22:14:46;;;;;;;14.45;2.72;;;;;;;;;;5044359;28;20021;-64
2021/12/05 22:17:13;;;;;;;17.55;4.22;;;;;;;;;;5043784;28;20480;-63
2021/12/05 22:19:48;;;;;;;11.40;2.38;;;;;;;;;;5040958;28;20109;-63
2021/12/05 22:22:14;;;;;;;12.05;2.67;;;;;;;;;;5036839;28;20401;-64
2021/12/05 22:24:40;;;;;;;14.02;2.50;;;;;;;;;;5041301;28;20025;-64
2021/12/05 22:27:06;;;;;;;14.90;2.67;;;;;;;;;;5040837;28;20071;-64
2021/12/05 22:29:38;;;;;;;11.80;3.25;;;;;;;;;;5047361;28;20025;-64
2021/12/05 22:32:04;;;;;;;16.65;3.45;;;;;;;;;;5043206;28;20456;-65
2021/12/05 22:34:30;;;;;;;13.57;3.28;;;;;;;;;;5034568;28;20033;-64
2021/12/05 22:36:56;;;;;;;15.52;3.75;;;;;;;;;;5032093;28;20059;-64
2021/12/05 22:39:22;;;;;;;11.27;3.28;;;;;;;;;;5037961;28;20499;-64
2021/12/05 22:41:48;;;;;;;13.13;3.15;;;;;;;;;;5044143;28;20368;-64
2021/12/05 22:44:14;;;;;;;12.90;3.50;;;;;;;;;;5042809;28;20101;-64
2021/12/05 22:46:41;;;;;;;14.52;2.97;;;;;;;;;;5031824;28;20025;-64
2021/12/05 22:49:07;;;;;;;19.35;3.33;;;;;;;;;;5040045;28;20020;-64
2021/12/05 22:51:34;;;;;;;11.05;3.20;;;;;;;;;;5042366;28;20079;-64
2021/12/05 22:54:00;;;;;;;10.27;2.30;;;;;;;;;;5037870;28;20385;-65
2021/12/05 22:56:26;;;;;;;12.75;2.85;;;;;;;;;;5045654;28;20211;-65
2021/12/05 22:58:52;;;;;;;10.15;2.63;;;;;;;;;;5037616;28;20021;-65
2021/12/05 23:01:19;;;;;;;11.50;2.35;;;;;;;;;;5032457;28;20108;-65
2021/12/05 23:03:47;;;;;;;19.50;3.17;;;;;;;;;;5043217;28;20024;-65
2021/12/05 23:06:13;;;;;;;15.45;3.22;;;;;;;;;;5043925;28;20029;-65
2021/12/05 23:08:39;;;;;;;18.40;3.42;;;;;;;;;;5033372;28;20044;-65
2021/12/05 23:11:06;;;;;;;11.38;3.50;;;;;;;;;;5034608;28;20037;-65
2021/12/05 23:13:34;;;;;;;17.13;3.53;;;;;;;;;;5043227;28;20044;-65
2021/12/05 23:16:00;;;;;;;14.27;3.25;;;;;;;;;;5036895;28;20021;-65
